Terminal Aerodrome Forecast
Issued by NWS Los Angeles, CA

Home | Current Version | Previous Version | Text Only | Print | Product List | Glossary On
Versions: 1 2 3 4 5 6 7 8 9 10 11 12 13 14 15 16
000
FTUS46 KLOX 190206 AAA
TAFSMX
TAF AMD
KSMX 190206Z 1902/1924 32005KT 5SM BR BKN009
     FM190400 VRB03KT 2SM BR OVC005
     FM190800 VRB03KT 1/2SM FG VV001
     FM191600 VRB03KT 2SM BR OVC002
     FM191800 31007KT P6SM SCT250
     FM192100 30014KT P6SM BKN250=

USA.gov is the U.S. government's official web portal to all federal, state and local government web resources and services.